sensor_id;sensor_type;location;lat;lon;timestamp;P1;durP1;ratioP1;P2;durP2;ratioP2
45848;SDS011;31567;54.600;9.842;2022-12-29T00:00:25;2.78;;;2.58;;
45848;SDS011;31567;54.600;9.842;2022-12-29T00:04:04;3.08;;;2.88;;
45848;SDS011;31567;54.600;9.842;2022-12-29T00:07:44;3.72;;;3.50;;
45848;SDS011;31567;54.600;9.842;2022-12-29T00:11:24;4.13;;;3.83;;
45848;SDS011;31567;54.600;9.842;2022-12-29T00:15:04;4.38;;;4.00;;
45848;SDS011;31567;54.600;9.842;2022-12-29T00:19:04;4.65;;;4.25;;
45848;SDS011;31567;54.600;9.842;2022-12-29T00:22:44;5.18;;;4.72;;
45848;SDS011;31567;54.600;9.842;2022-12-29T00:26:42;6.45;;;5.85;;
45848;SDS011;31567;54.600;9.842;2022-12-29T00:30:40;6.15;;;5.60;;
45848;SDS011;31567;54.600;9.842;2022-12-29T00:34:38;6.38;;;5.85;;
45848;SDS011;31567;54.600;9.842;2022-12-29T00:38:37;5.75;;;5.25;;
45848;SDS011;31567;54.600;9.842;2022-12-29T00:42:37;5.78;;;5.38;;
45848;SDS011;31567;54.600;9.842;2022-12-29T00:46:36;6.25;;;5.75;;
45848;SDS011;31567;54.600;9.842;2022-12-29T00:50:17;6.20;;;5.70;;
45848;SDS011;31567;54.600;9.842;2022-12-29T00:53:56;5.25;;;4.85;;
45848;SDS011;31567;54.600;9.842;2022-12-29T00:57:36;5.72;;;5.05;;
45848;SDS011;31567;54.600;9.842;2022-12-29T01:01:15;7.63;;;5.95;;
45848;SDS011;31567;54.600;9.842;2022-12-29T01:04:55;5.50;;;5.03;;
45848;SDS011;31567;54.600;9.842;2022-12-29T01:08:35;6.63;;;5.95;;
45848;SDS011;31567;54.600;9.842;2022-12-29T01:12:15;4.93;;;4.55;;
45848;SDS011;31567;54.600;9.842;2022-12-29T01:15:54;6.63;;;6.03;;
45848;SDS011;31567;54.600;9.842;2022-12-29T01:19:34;6.03;;;5.43;;
45848;SDS011;31567;54.600;9.842;2022-12-29T01:23:14;6.30;;;5.80;;
45848;SDS011;31567;54.600;9.842;2022-12-29T01:26:53;7.32;;;6.63;;
45848;SDS011;31567;54.600;9.842;2022-12-29T01:30:34;5.95;;;5.43;;
45848;SDS011;31567;54.600;9.842;2022-12-29T01:34:14;7.85;;;7.15;;
45848;SDS011;31567;54.600;9.842;2022-12-29T01:37:53;7.20;;;6.00;;
45848;SDS011;31567;54.600;9.842;2022-12-29T01:41:33;7.07;;;6.57;;
45848;SDS011;31567;54.600;9.842;2022-12-29T01:45:13;5.93;;;5.53;;
45848;SDS011;31567;54.600;9.842;2022-12-29T01:52:58;6.65;;;6.10;;
45848;SDS011;31567;54.600;9.842;2022-12-29T01:56:41;7.47;;;6.65;;
45848;SDS011;31567;54.600;9.842;2022-12-29T02:00:21;6.75;;;6.15;;
45848;SDS011;31567;54.600;9.842;2022-12-29T02:04:01;7.43;;;6.85;;
45848;SDS011;31567;54.600;9.842;2022-12-29T02:07:41;8.50;;;7.80;;
45848;SDS011;31567;54.600;9.842;2022-12-29T02:11:23;7.70;;;7.10;;
45848;SDS011;31567;54.600;9.842;2022-12-29T02:15:05;8.02;;;7.32;;
45848;SDS011;31567;54.600;9.842;2022-12-29T02:18:51;7.68;;;7.00;;
45848;SDS011;31567;54.600;9.842;2022-12-29T02:26:44;8.77;;;8.07;;
45848;SDS011;31567;54.600;9.842;2022-12-29T02:30:45;9.57;;;8.77;;
45848;SDS011;31567;54.600;9.842;2022-12-29T02:34:43;10.35;;;9.40;;
45848;SDS011;31567;54.600;9.842;2022-12-29T02:46:47;9.68;;;8.88;;
45848;SDS011;31567;54.600;9.842;2022-12-29T02:50:34;9.70;;;8.90;;
45848;SDS011;31567;54.600;9.842;2022-12-29T02:54:18;10.43;;;9.43;;
45848;SDS011;31567;54.600;9.842;2022-12-29T02:58:21;10.07;;;8.98;;
45848;SDS011;31567;54.600;9.842;2022-12-29T03:14:14;9.00;;;8.02;;
45848;SDS011;31567;54.600;9.842;2022-12-29T03:18:24;8.80;;;7.97;;
45848;SDS011;31567;54.600;9.842;2022-12-29T03:22:27;8.80;;;8.10;;
45848;SDS011;31567;54.600;9.842;2022-12-29T03:26:10;8.02;;;7.32;;
45848;SDS011;31567;54.600;9.842;2022-12-29T03:29:52;8.48;;;7.78;;
45848;SDS011;31567;54.600;9.842;2022-12-29T03:33:36;8.15;;;7.45;;
45848;SDS011;31567;54.600;9.842;2022-12-29T03:37:18;7.13;;;6.63;;
45848;SDS011;31567;54.600;9.842;2022-12-29T03:41:03;7.97;;;7.38;;
45848;SDS011;31567;54.600;9.842;2022-12-29T03:44:46;8.40;;;7.75;;
45848;SDS011;31567;54.600;9.842;2022-12-29T03:48:26;8.68;;;7.97;;
45848;SDS011;31567;54.600;9.842;2022-12-29T03:52:05;7.55;;;6.95;;
45848;SDS011;31567;54.600;9.842;2022-12-29T03:55:45;6.75;;;6.20;;
45848;SDS011;31567;54.600;9.842;2022-12-29T03:59:24;8.48;;;7.68;;
45848;SDS011;31567;54.600;9.842;2022-12-29T04:03:04;8.75;;;7.95;;
45848;SDS011;31567;54.600;9.842;2022-12-29T04:06:43;7.40;;;6.80;;
45848;SDS011;31567;54.600;9.842;2022-12-29T04:10:23;7.55;;;6.97;;
45848;SDS011;31567;54.600;9.842;2022-12-29T04:14:03;8.98;;;8.15;;
45848;SDS011;31567;54.600;9.842;2022-12-29T04:17:42;8.13;;;7.43;;
45848;SDS011;31567;54.600;9.842;2022-12-29T04:21:22;8.95;;;8.10;;
45848;SDS011;31567;54.600;9.842;2022-12-29T04:25:01;8.85;;;8.10;;
45848;SDS011;31567;54.600;9.842;2022-12-29T04:28:41;7.55;;;6.97;;
45848;SDS011;31567;54.600;9.842;2022-12-29T04:32:20;8.95;;;8.25;;
45848;SDS011;31567;54.600;9.842;2022-12-29T04:36:00;9.23;;;8.50;;
45848;SDS011;31567;54.600;9.842;2022-12-29T04:39:39;8.52;;;7.82;;
45848;SDS011;31567;54.600;9.842;2022-12-29T04:43:19;8.43;;;7.72;;
45848;SDS011;31567;54.600;9.842;2022-12-29T04:47:00;9.77;;;8.98;;
45848;SDS011;31567;54.600;9.842;2022-12-29T04:50:40;11.52;;;9.27;;
45848;SDS011;31567;54.600;9.842;2022-12-29T04:54:20;9.95;;;9.05;;
45848;SDS011;31567;54.600;9.842;2022-12-29T04:58:00;8.00;;;7.25;;
45848;SDS011;31567;54.600;9.842;2022-12-29T05:01:39;8.30;;;7.70;;
45848;SDS011;31567;54.600;9.842;2022-12-29T05:05:19;7.47;;;6.90;;
45848;SDS011;31567;54.600;9.842;2022-12-29T05:08:58;8.18;;;7.43;;
45848;SDS011;31567;54.600;9.842;2022-12-29T05:12:38;8.48;;;7.70;;
45848;SDS011;31567;54.600;9.842;2022-12-29T05:16:18;8.52;;;7.72;;
45848;SDS011;31567;54.600;9.842;2022-12-29T05:19:57;8.93;;;8.23;;
45848;SDS011;31567;54.600;9.842;2022-12-29T05:23:37;11.43;;;10.43;;
45848;SDS011;31567;54.600;9.842;2022-12-29T05:27:16;11.55;;;10.45;;
45848;SDS011;31567;54.600;9.842;2022-12-29T05:30:56;9.30;;;8.52;;
45848;SDS011;31567;54.600;9.842;2022-12-29T05:34:35;11.02;;;9.60;;
45848;SDS011;31567;54.600;9.842;2022-12-29T05:38:15;10.90;;;10.05;;
45848;SDS011;31567;54.600;9.842;2022-12-29T05:41:55;9.38;;;8.57;;
45848;SDS011;31567;54.600;9.842;2022-12-29T05:45:35;7.78;;;6.93;;
45848;SDS011;31567;54.600;9.842;2022-12-29T05:49:15;7.22;;;6.65;;
45848;SDS011;31567;54.600;9.842;2022-12-29T05:52:55;3.50;;;3.28;;
45848;SDS011;31567;54.600;9.842;2022-12-29T05:56:35;5.95;;;5.40;;
45848;SDS011;31567;54.600;9.842;2022-12-29T06:00:14;5.70;;;5.30;;
45848;SDS011;31567;54.600;9.842;2022-12-29T06:03:54;3.42;;;3.13;;
45848;SDS011;31567;54.600;9.842;2022-12-29T06:07:34;2.72;;;1.83;;
45848;SDS011;31567;54.600;9.842;2022-12-29T06:11:13;1.83;;;1.73;;
45848;SDS011;31567;54.600;9.842;2022-12-29T06:14:53;2.58;;;1.20;;
45848;SDS011;31567;54.600;9.842;2022-12-29T06:18:32;1.25;;;1.15;;
45848;SDS011;31567;54.600;9.842;2022-12-29T06:22:12;0.70;;;0.70;;
45848;SDS011;31567;54.600;9.842;2022-12-29T06:25:52;1.88;;;0.85;;
45848;SDS011;31567;54.600;9.842;2022-12-29T06:29:32;3.15;;;1.42;;
45848;SDS011;31567;54.600;9.842;2022-12-29T06:33:11;2.85;;;0.90;;
45848;SDS011;31567;54.600;9.842;2022-12-29T06:36:51;0.65;;;0.52;;
45848;SDS011;31567;54.600;9.842;2022-12-29T06:40:31;1.52;;;0.63;;
45848;SDS011;31567;54.600;9.842;2022-12-29T06:44:11;0.73;;;0.73;;
45848;SDS011;31567;54.600;9.842;2022-12-29T06:47:50;0.98;;;0.98;;
45848;SDS011;31567;54.600;9.842;2022-12-29T06:51:30;2.13;;;0.98;;
45848;SDS011;31567;54.600;9.842;2022-12-29T06:55:09;2.53;;;1.20;;
45848;SDS011;31567;54.600;9.842;2022-12-29T06:58:49;1.45;;;1.20;;
45848;SDS011;31567;54.600;9.842;2022-12-29T07:02:29;2.58;;;1.50;;
45848;SDS011;31567;54.600;9.842;2022-12-29T07:06:08;1.92;;;1.40;;
45848;SDS011;31567;54.600;9.842;2022-12-29T07:09:48;2.42;;;1.73;;
45848;SDS011;31567;54.600;9.842;2022-12-29T07:13:27;1.80;;;1.70;;
45848;SDS011;31567;54.600;9.842;2022-12-29T07:17:07;1.88;;;1.77;;
45848;SDS011;31567;54.600;9.842;2022-12-29T07:20:47;1.23;;;1.17;;
45848;SDS011;31567;54.600;9.842;2022-12-29T07:24:26;1.98;;;1.45;;
45848;SDS011;31567;54.600;9.842;2022-12-29T07:28:06;2.83;;;1.48;;
45848;SDS011;31567;54.600;9.842;2022-12-29T07:31:46;1.98;;;1.38;;
45848;SDS011;31567;54.600;9.842;2022-12-29T07:35:25;1.70;;;1.60;;
45848;SDS011;31567;54.600;9.842;2022-12-29T07:39:05;1.88;;;1.10;;
45848;SDS011;31567;54.600;9.842;2022-12-29T07:42:44;2.13;;;1.00;;
45848;SDS011;31567;54.600;9.842;2022-12-29T07:46:24;1.60;;;0.98;;
45848;SDS011;31567;54.600;9.842;2022-12-29T07:50:04;3.42;;;0.90;;
45848;SDS011;31567;54.600;9.842;2022-12-29T07:53:44;3.85;;;0.80;;
45848;SDS011;31567;54.600;9.842;2022-12-29T07:57:23;2.35;;;0.93;;
45848;SDS011;31567;54.600;9.842;2022-12-29T08:01:03;3.13;;;1.10;;
45848;SDS011;31567;54.600;9.842;2022-12-29T08:04:44;2.83;;;0.90;;
45848;SDS011;31567;54.600;9.842;2022-12-29T08:08:23;2.78;;;0.85;;
45848;SDS011;31567;54.600;9.842;2022-12-29T08:12:03;4.80;;;1.02;;
45848;SDS011;31567;54.600;9.842;2022-12-29T08:15:43;2.38;;;0.80;;
45848;SDS011;31567;54.600;9.842;2022-12-29T08:19:22;3.80;;;0.60;;
45848;SDS011;31567;54.600;9.842;2022-12-29T08:23:02;5.32;;;0.80;;
45848;SDS011;31567;54.600;9.842;2022-12-29T08:26:41;3.88;;;0.80;;
45848;SDS011;31567;54.600;9.842;2022-12-29T08:30:21;3.83;;;0.80;;
45848;SDS011;31567;54.600;9.842;2022-12-29T08:34:00;4.03;;;1.27;;
45848;SDS011;31567;54.600;9.842;2022-12-29T08:37:42;5.07;;;0.90;;
45848;SDS011;31567;54.600;9.842;2022-12-29T08:41:21;5.45;;;0.90;;
45848;SDS011;31567;54.600;9.842;2022-12-29T08:45:01;7.40;;;0.98;;
45848;SDS011;31567;54.600;9.842;2022-12-29T08:48:41;3.53;;;0.82;;
45848;SDS011;31567;54.600;9.842;2022-12-29T08:52:20;4.55;;;1.15;;
45848;SDS011;31567;54.600;9.842;2022-12-29T08:56:00;5.43;;;1.00;;
45848;SDS011;31567;54.600;9.842;2022-12-29T08:59:41;7.38;;;1.08;;
45848;SDS011;31567;54.600;9.842;2022-12-29T09:03:21;5.13;;;1.48;;
45848;SDS011;31567;54.600;9.842;2022-12-29T09:07:02;8.23;;;1.70;;
45848;SDS011;31567;54.600;9.842;2022-12-29T09:10:41;8.75;;;1.00;;
45848;SDS011;31567;54.600;9.842;2022-12-29T09:14:22;7.40;;;1.30;;
45848;SDS011;31567;54.600;9.842;2022-12-29T09:18:01;9.68;;;2.05;;
45848;SDS011;31567;54.600;9.842;2022-12-29T09:21:41;6.40;;;1.00;;
45848;SDS011;31567;54.600;9.842;2022-12-29T09:25:20;4.22;;;0.88;;
45848;SDS011;31567;54.600;9.842;2022-12-29T09:29:03;4.57;;;1.10;;
45848;SDS011;31567;54.600;9.842;2022-12-29T09:32:42;4.80;;;0.95;;
45848;SDS011;31567;54.600;9.842;2022-12-29T09:36:22;10.13;;;1.63;;
45848;SDS011;31567;54.600;9.842;2022-12-29T09:40:02;7.72;;;1.27;;
45848;SDS011;31567;54.600;9.842;2022-12-29T09:47:33;8.70;;;1.63;;
45848;SDS011;31567;54.600;9.842;2022-12-29T09:51:15;8.23;;;1.60;;
45848;SDS011;31567;54.600;9.842;2022-12-29T09:55:03;8.20;;;1.30;;
45848;SDS011;31567;54.600;9.842;2022-12-29T09:59:00;6.22;;;0.90;;
45848;SDS011;31567;54.600;9.842;2022-12-29T10:02:48;15.88;;;1.63;;
45848;SDS011;31567;54.600;9.842;2022-12-29T10:10:38;8.38;;;1.83;;
45848;SDS011;31567;54.600;9.842;2022-12-29T10:26:18;8.82;;;1.42;;
45848;SDS011;31567;54.600;9.842;2022-12-29T10:30:01;6.30;;;1.55;;
45848;SDS011;31567;54.600;9.842;2022-12-29T10:33:42;7.45;;;1.67;;
45848;SDS011;31567;54.600;9.842;2022-12-29T10:37:27;7.93;;;1.35;;
45848;SDS011;31567;54.600;9.842;2022-12-29T10:44:59;5.25;;;1.10;;
45848;SDS011;31567;54.600;9.842;2022-12-29T10:48:39;6.60;;;1.00;;
45848;SDS011;31567;54.600;9.842;2022-12-29T10:52:19;7.18;;;1.90;;
45848;SDS011;31567;54.600;9.842;2022-12-29T10:56:01;9.13;;;1.40;;
45848;SDS011;31567;54.600;9.842;2022-12-29T10:59:48;7.32;;;1.45;;
45848;SDS011;31567;54.600;9.842;2022-12-29T11:03:37;6.60;;;1.63;;
45848;SDS011;31567;54.600;9.842;2022-12-29T11:07:41;9.88;;;1.77;;
45848;SDS011;31567;54.600;9.842;2022-12-29T11:11:22;5.80;;;1.13;;
45848;SDS011;31567;54.600;9.842;2022-12-29T11:15:13;5.93;;;1.40;;
45848;SDS011;31567;54.600;9.842;2022-12-29T11:18:54;4.05;;;1.10;;
45848;SDS011;31567;54.600;9.842;2022-12-29T11:22:33;5.70;;;1.50;;
45848;SDS011;31567;54.600;9.842;2022-12-29T11:26:16;6.20;;;1.27;;
45848;SDS011;31567;54.600;9.842;2022-12-29T11:29:58;6.72;;;1.25;;
45848;SDS011;31567;54.600;9.842;2022-12-29T11:33:38;6.47;;;1.40;;
45848;SDS011;31567;54.600;9.842;2022-12-29T11:37:39;8.18;;;1.67;;
45848;SDS011;31567;54.600;9.842;2022-12-29T11:41:20;3.53;;;0.65;;
45848;SDS011;31567;54.600;9.842;2022-12-29T11:45:05;7.27;;;1.53;;
45848;SDS011;31567;54.600;9.842;2022-12-29T11:49:05;3.65;;;1.08;;
45848;SDS011;31567;54.600;9.842;2022-12-29T11:52:45;5.22;;;1.08;;
45848;SDS011;31567;54.600;9.842;2022-12-29T11:56:39;5.78;;;1.05;;
45848;SDS011;31567;54.600;9.842;2022-12-29T12:00:22;6.13;;;1.27;;
45848;SDS011;31567;54.600;9.842;2022-12-29T12:04:06;8.80;;;2.15;;
45848;SDS011;31567;54.600;9.842;2022-12-29T12:07:53;7.40;;;0.95;;
45848;SDS011;31567;54.600;9.842;2022-12-29T12:11:44;4.43;;;0.93;;
45848;SDS011;31567;54.600;9.842;2022-12-29T12:15:27;13.65;;;1.90;;
45848;SDS011;31567;54.600;9.842;2022-12-29T12:19:20;7.68;;;1.40;;
45848;SDS011;31567;54.600;9.842;2022-12-29T12:23:16;7.65;;;1.58;;
45848;SDS011;31567;54.600;9.842;2022-12-29T12:30:58;10.00;;;1.60;;
45848;SDS011;31567;54.600;9.842;2022-12-29T12:34:41;9.00;;;1.83;;
45848;SDS011;31567;54.600;9.842;2022-12-29T12:42:25;16.60;;;2.05;;
45848;SDS011;31567;54.600;9.842;2022-12-29T13:18:37;7.45;;;1.40;;
45848;SDS011;31567;54.600;9.842;2022-12-29T13:26:19;5.13;;;1.13;;
45848;SDS011;31567;54.600;9.842;2022-12-29T13:30:04;5.13;;;1.17;;
45848;SDS011;31567;54.600;9.842;2022-12-29T13:37:54;7.28;;;1.55;;
45848;SDS011;31567;54.600;9.842;2022-12-29T13:41:53;11.50;;;2.22;;
45848;SDS011;31567;54.600;9.842;2022-12-29T13:45:33;10.93;;;2.50;;
45848;SDS011;31567;54.600;9.842;2022-12-29T13:49:18;11.07;;;2.10;;
45848;SDS011;31567;54.600;9.842;2022-12-29T14:00:58;17.90;;;2.70;;
45848;SDS011;31567;54.600;9.842;2022-12-29T14:04:55;16.10;;;2.70;;
45848;SDS011;31567;54.600;9.842;2022-12-29T14:08:37;16.58;;;2.97;;
45848;SDS011;31567;54.600;9.842;2022-12-29T14:12:21;16.92;;;3.38;;
45848;SDS011;31567;54.600;9.842;2022-12-29T14:20:17;21.08;;;2.97;;
45848;SDS011;31567;54.600;9.842;2022-12-29T14:28:15;18.05;;;2.90;;
45848;SDS011;31567;54.600;9.842;2022-12-29T14:32:01;13.15;;;2.83;;
45848;SDS011;31567;54.600;9.842;2022-12-29T14:35:41;18.90;;;3.70;;
45848;SDS011;31567;54.600;9.842;2022-12-29T14:39:28;18.25;;;2.60;;
45848;SDS011;31567;54.600;9.842;2022-12-29T14:43:20;17.83;;;3.25;;
45848;SDS011;31567;54.600;9.842;2022-12-29T14:50:46;23.77;;;4.38;;
45848;SDS011;31567;54.600;9.842;2022-12-29T14:58:20;16.30;;;2.85;;
45848;SDS011;31567;54.600;9.842;2022-12-29T15:02:12;14.30;;;2.88;;
45848;SDS011;31567;54.600;9.842;2022-12-29T15:06:08;25.27;;;5.35;;
45848;SDS011;31567;54.600;9.842;2022-12-29T15:09:52;21.20;;;3.45;;
45848;SDS011;31567;54.600;9.842;2022-12-29T15:13:39;20.90;;;3.70;;
45848;SDS011;31567;54.600;9.842;2022-12-29T15:17:28;15.02;;;3.05;;
45848;SDS011;31567;54.600;9.842;2022-12-29T15:21:11;12.32;;;2.97;;
45848;SDS011;31567;54.600;9.842;2022-12-29T15:24:52;19.15;;;3.55;;
45848;SDS011;31567;54.600;9.842;2022-12-29T15:36:10;15.68;;;3.33;;
45848;SDS011;31567;54.600;9.842;2022-12-29T15:39:53;16.00;;;3.58;;
45848;SDS011;31567;54.600;9.842;2022-12-29T15:47:39;14.98;;;2.63;;
45848;SDS011;31567;54.600;9.842;2022-12-29T15:55:18;18.77;;;2.85;;
45848;SDS011;31567;54.600;9.842;2022-12-29T16:03:11;10.80;;;2.30;;
45848;SDS011;31567;54.600;9.842;2022-12-29T16:06:59;19.45;;;3.50;;
45848;SDS011;31567;54.600;9.842;2022-12-29T16:10:41;16.83;;;2.80;;
45848;SDS011;31567;54.600;9.842;2022-12-29T16:14:28;12.07;;;2.88;;
45848;SDS011;31567;54.600;9.842;2022-12-29T16:18:23;13.95;;;3.45;;
45848;SDS011;31567;54.600;9.842;2022-12-29T16:22:11;11.18;;;2.78;;
45848;SDS011;31567;54.600;9.842;2022-12-29T16:25:55;15.10;;;2.47;;
45848;SDS011;31567;54.600;9.842;2022-12-29T16:29:36;14.95;;;2.58;;
45848;SDS011;31567;54.600;9.842;2022-12-29T16:33:29;13.68;;;2.95;;
45848;SDS011;31567;54.600;9.842;2022-12-29T16:37:31;9.63;;;2.78;;
45848;SDS011;31567;54.600;9.842;2022-12-29T16:41:30;10.95;;;2.85;;
45848;SDS011;31567;54.600;9.842;2022-12-29T16:45:28;13.25;;;2.38;;
45848;SDS011;31567;54.600;9.842;2022-12-29T16:49:16;9.85;;;1.90;;
45848;SDS011;31567;54.600;9.842;2022-12-29T16:52:56;13.18;;;2.10;;
45848;SDS011;31567;54.600;9.842;2022-12-29T16:56:36;8.57;;;1.77;;
45848;SDS011;31567;54.600;9.842;2022-12-29T17:00:26;13.93;;;2.45;;
45848;SDS011;31567;54.600;9.842;2022-12-29T17:04:08;8.73;;;2.17;;
45848;SDS011;31567;54.600;9.842;2022-12-29T17:07:50;10.82;;;2.08;;
45848;SDS011;31567;54.600;9.842;2022-12-29T17:11:33;8.90;;;1.85;;
45848;SDS011;31567;54.600;9.842;2022-12-29T17:15:32;11.77;;;1.90;;
45848;SDS011;31567;54.600;9.842;2022-12-29T17:19:20;12.50;;;2.00;;
45848;SDS011;31567;54.600;9.842;2022-12-29T17:23:10;16.15;;;4.03;;
45848;SDS011;31567;54.600;9.842;2022-12-29T17:26:54;14.98;;;2.15;;
45848;SDS011;31567;54.600;9.842;2022-12-29T17:30:36;9.88;;;1.63;;
45848;SDS011;31567;54.600;9.842;2022-12-29T17:34:16;11.70;;;1.80;;
45848;SDS011;31567;54.600;9.842;2022-12-29T17:37:56;8.23;;;1.35;;
45848;SDS011;31567;54.600;9.842;2022-12-29T17:41:35;11.40;;;2.35;;
45848;SDS011;31567;54.600;9.842;2022-12-29T17:45:17;10.32;;;1.58;;
45848;SDS011;31567;54.600;9.842;2022-12-29T17:48:59;11.05;;;2.08;;
45848;SDS011;31567;54.600;9.842;2022-12-29T17:52:40;10.15;;;1.92;;
45848;SDS011;31567;54.600;9.842;2022-12-29T17:56:21;8.57;;;1.67;;
45848;SDS011;31567;54.600;9.842;2022-12-29T18:00:00;8.35;;;1.65;;
45848;SDS011;31567;54.600;9.842;2022-12-29T18:03:40;10.90;;;1.75;;
45848;SDS011;31567;54.600;9.842;2022-12-29T18:07:20;10.88;;;1.40;;
45848;SDS011;31567;54.600;9.842;2022-12-29T18:11:00;13.50;;;2.13;;
45848;SDS011;31567;54.600;9.842;2022-12-29T18:14:40;8.38;;;1.75;;
45848;SDS011;31567;54.600;9.842;2022-12-29T18:18:20;9.07;;;1.95;;
45848;SDS011;31567;54.600;9.842;2022-12-29T18:22:01;9.38;;;1.70;;
45848;SDS011;31567;54.600;9.842;2022-12-29T18:25:42;7.75;;;1.67;;
45848;SDS011;31567;54.600;9.842;2022-12-29T18:29:34;14.93;;;1.60;;
45848;SDS011;31567;54.600;9.842;2022-12-29T18:33:14;7.97;;;1.10;;
45848;SDS011;31567;54.600;9.842;2022-12-29T18:36:55;10.55;;;1.55;;
45848;SDS011;31567;54.600;9.842;2022-12-29T18:40:37;9.93;;;1.70;;
45848;SDS011;31567;54.600;9.842;2022-12-29T18:44:17;11.88;;;1.52;;
45848;SDS011;31567;54.600;9.842;2022-12-29T18:47:58;13.23;;;1.80;;
45848;SDS011;31567;54.600;9.842;2022-12-29T18:51:38;7.93;;;1.25;;
45848;SDS011;31567;54.600;9.842;2022-12-29T18:55:19;8.73;;;1.77;;
45848;SDS011;31567;54.600;9.842;2022-12-29T18:59:00;7.93;;;1.15;;
45848;SDS011;31567;54.600;9.842;2022-12-29T19:02:40;7.95;;;1.48;;
45848;SDS011;31567;54.600;9.842;2022-12-29T19:06:20;12.23;;;2.05;;
45848;SDS011;31567;54.600;9.842;2022-12-29T19:10:00;11.13;;;1.80;;
45848;SDS011;31567;54.600;9.842;2022-12-29T19:13:39;8.27;;;1.52;;
45848;SDS011;31567;54.600;9.842;2022-12-29T19:17:19;7.97;;;1.30;;
45848;SDS011;31567;54.600;9.842;2022-12-29T19:20:58;10.52;;;1.92;;
45848;SDS011;31567;54.600;9.842;2022-12-29T19:24:38;14.32;;;3.58;;
45848;SDS011;31567;54.600;9.842;2022-12-29T19:28:19;9.40;;;2.30;;
45848;SDS011;31567;54.600;9.842;2022-12-29T19:32:00;11.95;;;2.42;;
45848;SDS011;31567;54.600;9.842;2022-12-29T19:35:40;8.63;;;1.42;;
45848;SDS011;31567;54.600;9.842;2022-12-29T19:39:20;12.00;;;2.85;;
45848;SDS011;31567;54.600;9.842;2022-12-29T19:43:00;9.15;;;1.73;;
45848;SDS011;31567;54.600;9.842;2022-12-29T19:46:40;7.82;;;1.63;;
45848;SDS011;31567;54.600;9.842;2022-12-29T19:50:19;10.85;;;2.10;;
45848;SDS011;31567;54.600;9.842;2022-12-29T19:53:59;13.82;;;2.28;;
45848;SDS011;31567;54.600;9.842;2022-12-29T19:57:39;9.27;;;1.70;;
45848;SDS011;31567;54.600;9.842;2022-12-29T20:01:20;6.63;;;1.83;;
45848;SDS011;31567;54.600;9.842;2022-12-29T20:05:00;10.95;;;1.85;;
45848;SDS011;31567;54.600;9.842;2022-12-29T20:08:40;9.27;;;2.03;;
45848;SDS011;31567;54.600;9.842;2022-12-29T20:12:20;12.18;;;2.42;;
45848;SDS011;31567;54.600;9.842;2022-12-29T20:16:00;8.57;;;1.65;;
45848;SDS011;31567;54.600;9.842;2022-12-29T20:19:42;11.20;;;1.83;;
45848;SDS011;31567;54.600;9.842;2022-12-29T20:23:24;9.70;;;1.70;;
45848;SDS011;31567;54.600;9.842;2022-12-29T20:27:05;6.10;;;1.73;;
45848;SDS011;31567;54.600;9.842;2022-12-29T20:30:57;5.15;;;1.27;;
45848;SDS011;31567;54.600;9.842;2022-12-29T20:34:39;10.38;;;1.50;;
45848;SDS011;31567;54.600;9.842;2022-12-29T20:38:19;13.73;;;1.88;;
45848;SDS011;31567;54.600;9.842;2022-12-29T20:41:59;11.50;;;1.80;;
45848;SDS011;31567;54.600;9.842;2022-12-29T20:45:39;14.85;;;1.73;;
45848;SDS011;31567;54.600;9.842;2022-12-29T20:49:18;16.08;;;2.33;;
45848;SDS011;31567;54.600;9.842;2022-12-29T20:52:58;6.28;;;1.20;;
45848;SDS011;31567;54.600;9.842;2022-12-29T20:56:37;2.88;;;0.70;;
45848;SDS011;31567;54.600;9.842;2022-12-29T21:00:17;6.30;;;1.33;;
45848;SDS011;31567;54.600;9.842;2022-12-29T21:03:57;3.35;;;0.77;;
45848;SDS011;31567;54.600;9.842;2022-12-29T21:07:37;4.70;;;1.10;;
45848;SDS011;31567;54.600;9.842;2022-12-29T21:11:20;9.27;;;1.70;;
45848;SDS011;31567;54.600;9.842;2022-12-29T21:15:00;9.57;;;2.03;;
45848;SDS011;31567;54.600;9.842;2022-12-29T21:18:39;3.90;;;1.63;;
45848;SDS011;31567;54.600;9.842;2022-12-29T21:22:19;7.18;;;1.85;;
45848;SDS011;31567;54.600;9.842;2022-12-29T21:25:59;6.32;;;1.52;;
45848;SDS011;31567;54.600;9.842;2022-12-29T21:29:38;9.50;;;1.48;;
45848;SDS011;31567;54.600;9.842;2022-12-29T21:33:18;10.93;;;1.65;;
45848;SDS011;31567;54.600;9.842;2022-12-29T21:36:59;11.32;;;1.70;;
45848;SDS011;31567;54.600;9.842;2022-12-29T21:40:38;8.40;;;1.55;;
45848;SDS011;31567;54.600;9.842;2022-12-29T21:44:18;10.00;;;1.63;;
45848;SDS011;31567;54.600;9.842;2022-12-29T21:48:16;9.30;;;2.03;;
45848;SDS011;31567;54.600;9.842;2022-12-29T21:51:59;10.63;;;2.05;;
45848;SDS011;31567;54.600;9.842;2022-12-29T21:55:38;9.85;;;1.38;;
45848;SDS011;31567;54.600;9.842;2022-12-29T21:59:18;8.57;;;1.58;;
45848;SDS011;31567;54.600;9.842;2022-12-29T22:03:16;9.15;;;1.20;;
45848;SDS011;31567;54.600;9.842;2022-12-29T22:07:14;6.43;;;1.30;;
45848;SDS011;31567;54.600;9.842;2022-12-29T22:11:12;10.93;;;1.65;;
45848;SDS011;31567;54.600;9.842;2022-12-29T22:15:10;7.32;;;1.70;;
45848;SDS011;31567;54.600;9.842;2022-12-29T22:18:50;13.05;;;1.33;;
45848;SDS011;31567;54.600;9.842;2022-12-29T22:22:30;11.82;;;2.35;;
45848;SDS011;31567;54.600;9.842;2022-12-29T22:26:11;15.55;;;2.10;;
45848;SDS011;31567;54.600;9.842;2022-12-29T22:29:52;9.43;;;2.08;;
45848;SDS011;31567;54.600;9.842;2022-12-29T22:33:31;11.27;;;1.58;;
45848;SDS011;31567;54.600;9.842;2022-12-29T22:37:11;12.15;;;2.05;;
45848;SDS011;31567;54.600;9.842;2022-12-29T22:40:50;15.15;;;3.00;;
45848;SDS011;31567;54.600;9.842;2022-12-29T22:44:35;16.20;;;2.20;;
45848;SDS011;31567;54.600;9.842;2022-12-29T22:48:15;10.23;;;1.75;;
45848;SDS011;31567;54.600;9.842;2022-12-29T22:51:54;18.02;;;2.47;;
45848;SDS011;31567;54.600;9.842;2022-12-29T22:55:34;14.40;;;2.60;;
45848;SDS011;31567;54.600;9.842;2022-12-29T22:59:13;8.55;;;1.52;;
45848;SDS011;31567;54.600;9.842;2022-12-29T23:02:54;12.23;;;2.20;;
45848;SDS011;31567;54.600;9.842;2022-12-29T23:06:34;11.70;;;1.83;;
45848;SDS011;31567;54.600;9.842;2022-12-29T23:10:14;14.73;;;2.45;;
45848;SDS011;31567;54.600;9.842;2022-12-29T23:13:53;11.40;;;1.73;;
45848;SDS011;31567;54.600;9.842;2022-12-29T23:17:33;10.43;;;1.75;;
45848;SDS011;31567;54.600;9.842;2022-12-29T23:21:14;11.85;;;2.10;;
45848;SDS011;31567;54.600;9.842;2022-12-29T23:24:54;15.65;;;2.20;;
45848;SDS011;31567;54.600;9.842;2022-12-29T23:28:34;16.42;;;3.45;;
45848;SDS011;31567;54.600;9.842;2022-12-29T23:32:13;14.15;;;1.92;;
45848;SDS011;31567;54.600;9.842;2022-12-29T23:35:53;17.38;;;3.63;;
45848;SDS011;31567;54.600;9.842;2022-12-29T23:39:33;12.45;;;1.85;;
45848;SDS011;31567;54.600;9.842;2022-12-29T23:43:12;16.00;;;3.15;;
45848;SDS011;31567;54.600;9.842;2022-12-29T23:46:52;13.68;;;1.98;;
45848;SDS011;31567;54.600;9.842;2022-12-29T23:50:31;14.50;;;2.72;;
45848;SDS011;31567;54.600;9.842;2022-12-29T23:54:11;15.82;;;3.03;;
45848;SDS011;31567;54.600;9.842;2022-12-29T23:57:50;15.75;;;2.35;;
